sensor_id;sensor_type;location;lat;lon;timestamp;temperature;humidity
29003;DHT22;16102;57.138;-2.118;2022-09-13T00:01:33;13.30;1.00
29003;DHT22;16102;57.138;-2.118;2022-09-13T00:04:00;13.20;1.00
29003;DHT22;16102;57.138;-2.118;2022-09-13T00:06:27;13.20;1.00
29003;DHT22;16102;57.138;-2.118;2022-09-13T00:08:54;13.30;1.00
29003;DHT22;16102;57.138;-2.118;2022-09-13T00:11:24;13.30;1.00
29003;DHT22;16102;57.138;-2.118;2022-09-13T00:13:52;13.40;1.00
29003;DHT22;16102;57.138;-2.118;2022-09-13T00:16:22;13.40;1.00
29003;DHT22;16102;57.138;-2.118;2022-09-13T00:18:51;13.50;1.00
29003;DHT22;16102;57.138;-2.118;2022-09-13T00:21:20;13.50;1.00
29003;DHT22;16102;57.138;-2.118;2022-09-13T00:23:49;13.60;1.00
29003;DHT22;16102;57.138;-2.118;2022-09-13T00:26:25;13.70;1.00
29003;DHT22;16102;57.138;-2.118;2022-09-13T00:28:55;13.70;1.00
29003;DHT22;16102;57.138;-2.118;2022-09-13T00:31:24;13.70;1.00
29003;DHT22;16102;57.138;-2.118;2022-09-13T00:33:52;13.70;1.00
29003;DHT22;16102;57.138;-2.118;2022-09-13T00:36:19;13.70;1.00
29003;DHT22;16102;57.138;-2.118;2022-09-13T00:38:46;13.70;1.00
29003;DHT22;16102;57.138;-2.118;2022-09-13T00:41:16;13.60;1.00
29003;DHT22;16102;57.138;-2.118;2022-09-13T00:43:50;13.60;1.00
29003;DHT22;16102;57.138;-2.118;2022-09-13T00:49:24;13.70;1.00
29003;DHT22;16102;57.138;-2.118;2022-09-13T00:51:59;13.70;1.00
29003;DHT22;16102;57.138;-2.118;2022-09-13T00:54:29;13.80;1.00
29003;DHT22;16102;57.138;-2.118;2022-09-13T00:56:59;13.80;1.00
29003;DHT22;16102;57.138;-2.118;2022-09-13T00:59:46;13.80;1.00
29003;DHT22;16102;57.138;-2.118;2022-09-13T01:02:16;13.80;1.00
29003;DHT22;16102;57.138;-2.118;2022-09-13T01:04:44;13.80;1.00
29003;DHT22;16102;57.138;-2.118;2022-09-13T01:07:13;13.90;1.00
29003;DHT22;16102;57.138;-2.118;2022-09-13T01:09:45;13.90;1.00
29003;DHT22;16102;57.138;-2.118;2022-09-13T01:12:24;13.90;1.00
29003;DHT22;16102;57.138;-2.118;2022-09-13T01:14:56;14.00;1.00
29003;DHT22;16102;57.138;-2.118;2022-09-13T01:17:29;14.00;1.00
29003;DHT22;16102;57.138;-2.118;2022-09-13T01:19:57;14.10;1.00
29003;DHT22;16102;57.138;-2.118;2022-09-13T01:23:11;14.10;1.00
29003;DHT22;16102;57.138;-2.118;2022-09-13T01:47:47;14.10;1.00
29003;DHT22;16102;57.138;-2.118;2022-09-13T01:50:25;14.10;1.00
29003;DHT22;16102;57.138;-2.118;2022-09-13T01:58:20;14.10;1.00
29003;DHT22;16102;57.138;-2.118;2022-09-13T02:01:38;14.00;1.00
29003;DHT22;16102;57.138;-2.118;2022-09-13T02:03:54;14.00;1.00
29003;DHT22;16102;57.138;-2.118;2022-09-13T02:06:29;14.00;1.00
29003;DHT22;16102;57.138;-2.118;2022-09-13T02:09:00;14.00;1.00
29003;DHT22;16102;57.138;-2.118;2022-09-13T02:11:30;14.00;1.00
29003;DHT22;16102;57.138;-2.118;2022-09-13T02:14:00;14.00;1.00
29003;DHT22;16102;57.138;-2.118;2022-09-13T02:16:43;14.00;1.00
29003;DHT22;16102;57.138;-2.118;2022-09-13T02:19:22;14.10;1.00
29003;DHT22;16102;57.138;-2.118;2022-09-13T02:21:56;14.10;1.00
29003;DHT22;16102;57.138;-2.118;2022-09-13T02:24:30;14.10;1.00
29003;DHT22;16102;57.138;-2.118;2022-09-13T02:27:02;14.10;1.00
29003;DHT22;16102;57.138;-2.118;2022-09-13T02:29:31;14.00;1.00
29003;DHT22;16102;57.138;-2.118;2022-09-13T02:35:19;14.00;1.00
29003;DHT22;16102;57.138;-2.118;2022-09-13T02:38:11;14.00;1.00
29003;DHT22;16102;57.138;-2.118;2022-09-13T02:40:44;13.90;1.00
29003;DHT22;16102;57.138;-2.118;2022-09-13T02:43:33;13.80;1.00
29003;DHT22;16102;57.138;-2.118;2022-09-13T02:49:28;13.70;1.00
29003;DHT22;16102;57.138;-2.118;2022-09-13T02:52:32;13.70;1.00
29003;DHT22;16102;57.138;-2.118;2022-09-13T02:55:18;13.70;1.00
29003;DHT22;16102;57.138;-2.118;2022-09-13T02:58:24;13.60;1.00
29003;DHT22;16102;57.138;-2.118;2022-09-13T03:00:53;13.60;1.00
29003;DHT22;16102;57.138;-2.118;2022-09-13T03:03:21;13.60;1.00
29003;DHT22;16102;57.138;-2.118;2022-09-13T03:05:49;13.60;1.00
29003;DHT22;16102;57.138;-2.118;2022-09-13T03:08:17;13.60;1.00
29003;DHT22;16102;57.138;-2.118;2022-09-13T03:10:47;13.60;1.00
29003;DHT22;16102;57.138;-2.118;2022-09-13T03:21:22;13.50;1.00
29003;DHT22;16102;57.138;-2.118;2022-09-13T03:24:22;13.50;1.00
29003;DHT22;16102;57.138;-2.118;2022-09-13T03:30:06;13.50;1.00
29003;DHT22;16102;57.138;-2.118;2022-09-13T03:40:41;13.40;1.00
29003;DHT22;16102;57.138;-2.118;2022-09-13T03:45:58;13.40;1.00
29003;DHT22;16102;57.138;-2.118;2022-09-13T03:48:27;13.40;1.00
29003;DHT22;16102;57.138;-2.118;2022-09-13T03:50:55;13.40;1.00
29003;DHT22;16102;57.138;-2.118;2022-09-13T03:53:26;13.40;1.00
29003;DHT22;16102;57.138;-2.118;2022-09-13T03:55:54;13.40;1.00
29003;DHT22;16102;57.138;-2.118;2022-09-13T03:58:24;13.40;1.00
29003;DHT22;16102;57.138;-2.118;2022-09-13T04:00:51;13.40;1.00
29003;DHT22;16102;57.138;-2.118;2022-09-13T04:03:20;13.40;1.00
29003;DHT22;16102;57.138;-2.118;2022-09-13T04:05:47;13.40;1.00
29003;DHT22;16102;57.138;-2.118;2022-09-13T04:08:16;13.30;1.00
29003;DHT22;16102;57.138;-2.118;2022-09-13T04:10:43;13.30;1.00
29003;DHT22;16102;57.138;-2.118;2022-09-13T04:13:10;13.30;1.00
29003;DHT22;16102;57.138;-2.118;2022-09-13T04:15:38;13.30;1.00
29003;DHT22;16102;57.138;-2.118;2022-09-13T04:18:05;13.40;1.00
29003;DHT22;16102;57.138;-2.118;2022-09-13T04:20:32;13.30;1.00
29003;DHT22;16102;57.138;-2.118;2022-09-13T04:22:59;13.30;1.00
29003;DHT22;16102;57.138;-2.118;2022-09-13T04:25:26;13.30;1.00
29003;DHT22;16102;57.138;-2.118;2022-09-13T04:27:54;13.30;1.00
29003;DHT22;16102;57.138;-2.118;2022-09-13T04:30:22;13.30;1.00
29003;DHT22;16102;57.138;-2.118;2022-09-13T04:32:49;13.30;1.00
29003;DHT22;16102;57.138;-2.118;2022-09-13T04:35:16;13.30;1.00
29003;DHT22;16102;57.138;-2.118;2022-09-13T04:37:45;13.30;1.00
29003;DHT22;16102;57.138;-2.118;2022-09-13T04:40:12;13.20;1.00
29003;DHT22;16102;57.138;-2.118;2022-09-13T04:42:40;13.20;1.00
29003;DHT22;16102;57.138;-2.118;2022-09-13T04:45:09;13.20;1.00
29003;DHT22;16102;57.138;-2.118;2022-09-13T04:47:36;13.20;1.00
29003;DHT22;16102;57.138;-2.118;2022-09-13T04:50:04;13.20;1.00
29003;DHT22;16102;57.138;-2.118;2022-09-13T04:52:32;13.20;1.00
29003;DHT22;16102;57.138;-2.118;2022-09-13T04:54:59;13.20;1.00
29003;DHT22;16102;57.138;-2.118;2022-09-13T04:57:28;13.20;1.00
29003;DHT22;16102;57.138;-2.118;2022-09-13T04:59:55;13.20;1.00
29003;DHT22;16102;57.138;-2.118;2022-09-13T05:02:22;13.20;1.00
29003;DHT22;16102;57.138;-2.118;2022-09-13T05:04:49;13.20;1.00
29003;DHT22;16102;57.138;-2.118;2022-09-13T05:07:16;13.20;1.00
29003;DHT22;16102;57.138;-2.118;2022-09-13T05:09:43;13.20;1.00
29003;DHT22;16102;57.138;-2.118;2022-09-13T05:12:10;13.20;1.00
29003;DHT22;16102;57.138;-2.118;2022-09-13T05:14:37;13.20;1.00
29003;DHT22;16102;57.138;-2.118;2022-09-13T05:17:04;13.20;1.00
29003;DHT22;16102;57.138;-2.118;2022-09-13T05:19:31;13.30;1.00
29003;DHT22;16102;57.138;-2.118;2022-09-13T05:21:58;13.20;1.00
29003;DHT22;16102;57.138;-2.118;2022-09-13T05:24:25;13.20;1.00
29003;DHT22;16102;57.138;-2.118;2022-09-13T05:26:52;13.20;1.00
29003;DHT22;16102;57.138;-2.118;2022-09-13T05:29:19;13.20;1.00
29003;DHT22;16102;57.138;-2.118;2022-09-13T05:31:46;13.20;1.00
29003;DHT22;16102;57.138;-2.118;2022-09-13T05:34:15;13.20;1.00
29003;DHT22;16102;57.138;-2.118;2022-09-13T05:36:45;13.20;1.00
29003;DHT22;16102;57.138;-2.118;2022-09-13T05:39:20;13.20;1.00
29003;DHT22;16102;57.138;-2.118;2022-09-13T05:42:07;13.20;1.00
29003;DHT22;16102;57.138;-2.118;2022-09-13T05:44:37;13.10;1.00
29003;DHT22;16102;57.138;-2.118;2022-09-13T05:47:07;13.10;1.00
29003;DHT22;16102;57.138;-2.118;2022-09-13T05:49:34;13.10;1.00
29003;DHT22;16102;57.138;-2.118;2022-09-13T05:52:20;13.10;1.00
29003;DHT22;16102;57.138;-2.118;2022-09-13T05:54:47;13.10;1.00
29003;DHT22;16102;57.138;-2.118;2022-09-13T05:57:14;13.10;1.00
29003;DHT22;16102;57.138;-2.118;2022-09-13T05:59:41;13.20;1.00
29003;DHT22;16102;57.138;-2.118;2022-09-13T06:02:09;13.20;1.00
29003;DHT22;16102;57.138;-2.118;2022-09-13T06:04:36;13.10;1.00
29003;DHT22;16102;57.138;-2.118;2022-09-13T06:07:03;13.10;1.00
29003;DHT22;16102;57.138;-2.118;2022-09-13T06:09:30;13.10;1.00
29003;DHT22;16102;57.138;-2.118;2022-09-13T06:11:57;13.10;1.00
29003;DHT22;16102;57.138;-2.118;2022-09-13T06:14:24;13.10;1.00
29003;DHT22;16102;57.138;-2.118;2022-09-13T06:16:51;13.10;1.00
29003;DHT22;16102;57.138;-2.118;2022-09-13T06:19:18;13.10;1.00
29003;DHT22;16102;57.138;-2.118;2022-09-13T06:21:45;13.10;1.00
29003;DHT22;16102;57.138;-2.118;2022-09-13T06:24:12;13.10;1.00
29003;DHT22;16102;57.138;-2.118;2022-09-13T06:26:40;13.10;1.00
29003;DHT22;16102;57.138;-2.118;2022-09-13T06:29:10;13.10;1.00
29003;DHT22;16102;57.138;-2.118;2022-09-13T06:31:37;13.10;1.00
29003;DHT22;16102;57.138;-2.118;2022-09-13T06:34:11;13.00;1.00
29003;DHT22;16102;57.138;-2.118;2022-09-13T06:36:42;13.10;1.00
29003;DHT22;16102;57.138;-2.118;2022-09-13T06:39:09;13.10;1.00
29003;DHT22;16102;57.138;-2.118;2022-09-13T06:41:36;13.10;1.00
29003;DHT22;16102;57.138;-2.118;2022-09-13T06:44:03;13.10;1.00
29003;DHT22;16102;57.138;-2.118;2022-09-13T06:46:34;13.10;1.00
29003;DHT22;16102;57.138;-2.118;2022-09-13T06:49:04;13.10;1.00
29003;DHT22;16102;57.138;-2.118;2022-09-13T06:51:32;13.10;1.00
29003;DHT22;16102;57.138;-2.118;2022-09-13T06:54:00;13.10;1.00
29003;DHT22;16102;57.138;-2.118;2022-09-13T06:56:31;13.10;1.00
29003;DHT22;16102;57.138;-2.118;2022-09-13T06:59:09;13.20;1.00
29003;DHT22;16102;57.138;-2.118;2022-09-13T07:01:38;13.20;1.00
29003;DHT22;16102;57.138;-2.118;2022-09-13T07:04:11;13.20;1.00
29003;DHT22;16102;57.138;-2.118;2022-09-13T07:06:41;13.20;1.00
29003;DHT22;16102;57.138;-2.118;2022-09-13T07:09:19;13.20;1.00
29003;DHT22;16102;57.138;-2.118;2022-09-13T07:11:49;13.30;1.00
29003;DHT22;16102;57.138;-2.118;2022-09-13T07:14:19;13.30;1.00
29003;DHT22;16102;57.138;-2.118;2022-09-13T07:16:46;13.40;1.00
29003;DHT22;16102;57.138;-2.118;2022-09-13T07:19:18;13.40;1.00
29003;DHT22;16102;57.138;-2.118;2022-09-13T07:21:46;13.50;1.00
29003;DHT22;16102;57.138;-2.118;2022-09-13T07:24:19;13.50;1.00
29003;DHT22;16102;57.138;-2.118;2022-09-13T07:26:47;13.50;1.00
29003;DHT22;16102;57.138;-2.118;2022-09-13T07:29:16;13.60;1.00
29003;DHT22;16102;57.138;-2.118;2022-09-13T07:31:47;13.70;1.00
29003;DHT22;16102;57.138;-2.118;2022-09-13T07:34:16;13.70;1.00
29003;DHT22;16102;57.138;-2.118;2022-09-13T07:36:44;13.80;1.00
29003;DHT22;16102;57.138;-2.118;2022-09-13T07:39:13;13.80;1.00
29003;DHT22;16102;57.138;-2.118;2022-09-13T07:41:46;13.90;1.00
29003;DHT22;16102;57.138;-2.118;2022-09-13T07:44:13;13.90;1.00
29003;DHT22;16102;57.138;-2.118;2022-09-13T07:46:41;14.00;1.00
29003;DHT22;16102;57.138;-2.118;2022-09-13T07:49:15;14.10;1.00
29003;DHT22;16102;57.138;-2.118;2022-09-13T07:51:43;14.10;1.00
29003;DHT22;16102;57.138;-2.118;2022-09-13T07:54:13;14.10;1.00
29003;DHT22;16102;57.138;-2.118;2022-09-13T07:56:40;14.20;1.00
29003;DHT22;16102;57.138;-2.118;2022-09-13T07:59:14;14.20;1.00
29003;DHT22;16102;57.138;-2.118;2022-09-13T08:01:46;14.20;1.00
29003;DHT22;16102;57.138;-2.118;2022-09-13T08:04:16;14.20;1.00
29003;DHT22;16102;57.138;-2.118;2022-09-13T08:06:44;14.20;1.00
29003;DHT22;16102;57.138;-2.118;2022-09-13T08:09:13;14.20;1.00
29003;DHT22;16102;57.138;-2.118;2022-09-13T08:11:46;14.20;1.00
29003;DHT22;16102;57.138;-2.118;2022-09-13T08:14:15;14.30;1.00
29003;DHT22;16102;57.138;-2.118;2022-09-13T08:16:42;14.30;1.00
29003;DHT22;16102;57.138;-2.118;2022-09-13T08:19:14;14.40;1.00
29003;DHT22;16102;57.138;-2.118;2022-09-13T08:21:42;14.40;1.00
29003;DHT22;16102;57.138;-2.118;2022-09-13T08:24:18;14.50;1.00
29003;DHT22;16102;57.138;-2.118;2022-09-13T08:26:45;14.50;1.00
29003;DHT22;16102;57.138;-2.118;2022-09-13T08:29:14;14.60;1.00
29003;DHT22;16102;57.138;-2.118;2022-09-13T08:31:41;14.60;1.00
29003;DHT22;16102;57.138;-2.118;2022-09-13T08:34:12;14.70;1.00
29003;DHT22;16102;57.138;-2.118;2022-09-13T08:36:41;14.80;1.00
29003;DHT22;16102;57.138;-2.118;2022-09-13T08:39:09;14.80;1.00
29003;DHT22;16102;57.138;-2.118;2022-09-13T08:44:27;14.80;1.00
29003;DHT22;16102;57.138;-2.118;2022-09-13T08:49:43;14.80;99.90
29003;DHT22;16102;57.138;-2.118;2022-09-13T08:52:23;14.90;99.90
29003;DHT22;16102;57.138;-2.118;2022-09-13T08:54:54;14.90;99.90
29003;DHT22;16102;57.138;-2.118;2022-09-13T09:05:30;15.00;99.90
29003;DHT22;16102;57.138;-2.118;2022-09-13T09:08:12;15.00;99.90
29003;DHT22;16102;57.138;-2.118;2022-09-13T09:10:48;15.10;99.90
29003;DHT22;16102;57.138;-2.118;2022-09-13T09:15:57;15.10;99.90
29003;DHT22;16102;57.138;-2.118;2022-09-13T09:18:28;15.10;99.90
29003;DHT22;16102;57.138;-2.118;2022-09-13T09:20:59;15.10;99.90
29003;DHT22;16102;57.138;-2.118;2022-09-13T09:23:52;15.20;99.90
29003;DHT22;16102;57.138;-2.118;2022-09-13T09:26:24;15.30;99.90
29003;DHT22;16102;57.138;-2.118;2022-09-13T09:29:15;15.40;99.90
29003;DHT22;16102;57.138;-2.118;2022-09-13T09:40:32;15.60;99.90
29003;DHT22;16102;57.138;-2.118;2022-09-13T09:43:11;15.60;99.90
29003;DHT22;16102;57.138;-2.118;2022-09-13T09:45:42;15.70;99.90
29003;DHT22;16102;57.138;-2.118;2022-09-13T09:48:15;15.70;99.90
29003;DHT22;16102;57.138;-2.118;2022-09-13T09:50:50;15.90;99.90
29003;DHT22;16102;57.138;-2.118;2022-09-13T09:53:25;16.00;99.90
29003;DHT22;16102;57.138;-2.118;2022-09-13T09:56:05;15.90;99.90
29003;DHT22;16102;57.138;-2.118;2022-09-13T09:58:39;16.00;99.90
29003;DHT22;16102;57.138;-2.118;2022-09-13T10:03:49;16.30;99.90
29003;DHT22;16102;57.138;-2.118;2022-09-13T10:06:20;16.40;99.90
29003;DHT22;16102;57.138;-2.118;2022-09-13T10:11:22;16.60;99.90
29003;DHT22;16102;57.138;-2.118;2022-09-13T10:14:00;16.80;99.90
29003;DHT22;16102;57.138;-2.118;2022-09-13T10:16:29;16.80;99.90
29003;DHT22;16102;57.138;-2.118;2022-09-13T10:19:23;17.00;99.90
29003;DHT22;16102;57.138;-2.118;2022-09-13T10:22:11;17.10;99.90
29003;DHT22;16102;57.138;-2.118;2022-09-13T10:24:38;17.10;99.90
29003;DHT22;16102;57.138;-2.118;2022-09-13T10:27:20;17.00;99.90
29003;DHT22;16102;57.138;-2.118;2022-09-13T10:29:51;17.00;99.90
29003;DHT22;16102;57.138;-2.118;2022-09-13T10:32:21;17.00;99.90
29003;DHT22;16102;57.138;-2.118;2022-09-13T10:34:49;16.70;99.90
29003;DHT22;16102;57.138;-2.118;2022-09-13T10:37:23;16.80;99.90
29003;DHT22;16102;57.138;-2.118;2022-09-13T10:39:57;16.60;99.90
29003;DHT22;16102;57.138;-2.118;2022-09-13T10:42:26;16.60;99.90
29003;DHT22;16102;57.138;-2.118;2022-09-13T10:47:32;16.80;99.90
29003;DHT22;16102;57.138;-2.118;2022-09-13T10:50:15;17.00;99.90
29003;DHT22;16102;57.138;-2.118;2022-09-13T10:52:48;17.40;99.90
29003;DHT22;16102;57.138;-2.118;2022-09-13T10:57:48;17.70;99.90
29003;DHT22;16102;57.138;-2.118;2022-09-13T11:00:26;17.40;99.90
29003;DHT22;16102;57.138;-2.118;2022-09-13T11:05:32;17.80;99.90
29003;DHT22;16102;57.138;-2.118;2022-09-13T11:11:05;18.00;99.90
29003;DHT22;16102;57.138;-2.118;2022-09-13T11:22:04;18.40;99.90
29003;DHT22;16102;57.138;-2.118;2022-09-13T11:30:16;19.30;99.90
29003;DHT22;16102;57.138;-2.118;2022-09-13T11:56:04;19.20;99.90
29003;DHT22;16102;57.138;-2.118;2022-09-13T11:58:53;19.60;99.90
29003;DHT22;16102;57.138;-2.118;2022-09-13T12:01:27;19.80;99.90
29003;DHT22;16102;57.138;-2.118;2022-09-13T12:04:16;19.90;99.90
29003;DHT22;16102;57.138;-2.118;2022-09-13T12:07:11;20.50;99.90
29003;DHT22;16102;57.138;-2.118;2022-09-13T12:09:50;21.10;99.90
29003;DHT22;16102;57.138;-2.118;2022-09-13T12:12:20;21.60;99.90
29003;DHT22;16102;57.138;-2.118;2022-09-13T12:14:58;21.70;99.90
29003;DHT22;16102;57.138;-2.118;2022-09-13T12:17:39;22.10;99.90
29003;DHT22;16102;57.138;-2.118;2022-09-13T12:22:46;22.90;99.90
29003;DHT22;16102;57.138;-2.118;2022-09-13T12:25:22;23.80;99.90
29003;DHT22;16102;57.138;-2.118;2022-09-13T12:28:27;24.30;99.90
29003;DHT22;16102;57.138;-2.118;2022-09-13T12:31:00;25.40;99.90
29003;DHT22;16102;57.138;-2.118;2022-09-13T12:33:28;24.20;99.90
29003;DHT22;16102;57.138;-2.118;2022-09-13T12:36:17;25.50;99.90
29003;DHT22;16102;57.138;-2.118;2022-09-13T12:42:19;24.40;99.90
29003;DHT22;16102;57.138;-2.118;2022-09-13T12:45:02;23.30;99.90
29003;DHT22;16102;57.138;-2.118;2022-09-13T12:56:01;27.70;99.90
29003;DHT22;16102;57.138;-2.118;2022-09-13T13:01:25;26.30;99.90
29003;DHT22;16102;57.138;-2.118;2022-09-13T13:03:57;27.50;99.90
29003;DHT22;16102;57.138;-2.118;2022-09-13T13:09:44;28.00;99.90
29003;DHT22;16102;57.138;-2.118;2022-09-13T13:14:52;28.90;99.90
29003;DHT22;16102;57.138;-2.118;2022-09-13T13:17:47;29.60;99.90
29003;DHT22;16102;57.138;-2.118;2022-09-13T13:33:53;30.10;99.90
29003;DHT22;16102;57.138;-2.118;2022-09-13T13:36:30;31.40;99.90
29003;DHT22;16102;57.138;-2.118;2022-09-13T13:39:01;31.30;99.90
29003;DHT22;16102;57.138;-2.118;2022-09-13T13:46:51;33.50;99.90
29003;DHT22;16102;57.138;-2.118;2022-09-13T13:57:51;33.90;99.90
29003;DHT22;16102;57.138;-2.118;2022-09-13T14:00:24;35.20;99.90
29003;DHT22;16102;57.138;-2.118;2022-09-13T14:19:39;33.30;99.90
29003;DHT22;16102;57.138;-2.118;2022-09-13T14:22:18;31.60;99.90
29003;DHT22;16102;57.138;-2.118;2022-09-13T14:27:34;32.40;99.90
29003;DHT22;16102;57.138;-2.118;2022-09-13T14:30:13;34.40;99.90
29003;DHT22;16102;57.138;-2.118;2022-09-13T14:32:43;34.00;99.90
29003;DHT22;16102;57.138;-2.118;2022-09-13T14:35:35;33.70;99.90
29003;DHT22;16102;57.138;-2.118;2022-09-13T14:38:30;35.00;99.90
29003;DHT22;16102;57.138;-2.118;2022-09-13T14:41:14;36.60;99.90
29003;DHT22;16102;57.138;-2.118;2022-09-13T14:43:42;37.60;99.90
29003;DHT22;16102;57.138;-2.118;2022-09-13T14:48:43;36.70;99.90
29003;DHT22;16102;57.138;-2.118;2022-09-13T14:53:55;31.70;99.90
29003;DHT22;16102;57.138;-2.118;2022-09-13T14:56:31;31.00;99.90
29003;DHT22;16102;57.138;-2.118;2022-09-13T14:59:02;32.60;99.90
29003;DHT22;16102;57.138;-2.118;2022-09-13T15:01:33;33.50;99.90
29003;DHT22;16102;57.138;-2.118;2022-09-13T15:04:03;33.70;99.90
29003;DHT22;16102;57.138;-2.118;2022-09-13T15:06:36;34.00;99.90
29003;DHT22;16102;57.138;-2.118;2022-09-13T15:21:50;31.50;99.90
29003;DHT22;16102;57.138;-2.118;2022-09-13T15:24:32;30.90;99.90
29003;DHT22;16102;57.138;-2.118;2022-09-13T15:27:15;31.60;99.90
29003;DHT22;16102;57.138;-2.118;2022-09-13T15:29:48;31.20;99.90
29003;DHT22;16102;57.138;-2.118;2022-09-13T15:32:42;32.20;99.90
29003;DHT22;16102;57.138;-2.118;2022-09-13T15:35:30;31.30;99.90
29003;DHT22;16102;57.138;-2.118;2022-09-13T15:38:15;30.80;99.90
29003;DHT22;16102;57.138;-2.118;2022-09-13T15:40:56;31.60;99.90
29003;DHT22;16102;57.138;-2.118;2022-09-13T15:43:23;32.40;99.90
29003;DHT22;16102;57.138;-2.118;2022-09-13T15:45:50;30.70;99.90
29003;DHT22;16102;57.138;-2.118;2022-09-13T15:48:29;29.70;99.90
29003;DHT22;16102;57.138;-2.118;2022-09-13T15:51:10;30.00;99.90
29003;DHT22;16102;57.138;-2.118;2022-09-13T15:53:40;28.30;99.90
29003;DHT22;16102;57.138;-2.118;2022-09-13T15:56:11;28.60;99.90
29003;DHT22;16102;57.138;-2.118;2022-09-13T15:58:39;29.20;99.90
29003;DHT22;16102;57.138;-2.118;2022-09-13T16:01:06;28.90;99.90
29003;DHT22;16102;57.138;-2.118;2022-09-13T16:03:35;27.20;99.90
29003;DHT22;16102;57.138;-2.118;2022-09-13T16:06:03;26.70;99.90
29003;DHT22;16102;57.138;-2.118;2022-09-13T16:08:30;25.80;99.90
29003;DHT22;16102;57.138;-2.118;2022-09-13T16:10:57;24.90;99.90
29003;DHT22;16102;57.138;-2.118;2022-09-13T16:13:24;25.00;99.90
29003;DHT22;16102;57.138;-2.118;2022-09-13T16:15:51;26.00;99.90
29003;DHT22;16102;57.138;-2.118;2022-09-13T16:18:23;26.40;99.90
29003;DHT22;16102;57.138;-2.118;2022-09-13T16:20:54;27.50;99.90
29003;DHT22;16102;57.138;-2.118;2022-09-13T16:23:21;28.00;99.90
29003;DHT22;16102;57.138;-2.118;2022-09-13T16:25:52;27.80;99.90
29003;DHT22;16102;57.138;-2.118;2022-09-13T16:28:21;28.70;99.90
29003;DHT22;16102;57.138;-2.118;2022-09-13T16:33:46;29.30;99.90
29003;DHT22;16102;57.138;-2.118;2022-09-13T16:36:14;29.10;99.90
29003;DHT22;16102;57.138;-2.118;2022-09-13T16:38:41;29.10;99.90
29003;DHT22;16102;57.138;-2.118;2022-09-13T16:41:08;28.40;99.90
29003;DHT22;16102;57.138;-2.118;2022-09-13T16:43:35;27.90;99.90
29003;DHT22;16102;57.138;-2.118;2022-09-13T16:46:07;27.20;99.90
29003;DHT22;16102;57.138;-2.118;2022-09-13T16:48:35;27.00;99.90
29003;DHT22;16102;57.138;-2.118;2022-09-13T16:51:07;26.80;99.90
29003;DHT22;16102;57.138;-2.118;2022-09-13T16:53:37;26.60;99.90
29003;DHT22;16102;57.138;-2.118;2022-09-13T16:56:13;26.70;99.90
29003;DHT22;16102;57.138;-2.118;2022-09-13T16:58:43;26.40;99.90
29003;DHT22;16102;57.138;-2.118;2022-09-13T17:01:14;26.10;99.90
29003;DHT22;16102;57.138;-2.118;2022-09-13T17:03:42;25.60;99.90
29003;DHT22;16102;57.138;-2.118;2022-09-13T17:06:11;25.30;99.90
29003;DHT22;16102;57.138;-2.118;2022-09-13T17:08:41;25.00;99.90
29003;DHT22;16102;57.138;-2.118;2022-09-13T17:11:13;24.90;99.90
29003;DHT22;16102;57.138;-2.118;2022-09-13T17:13:41;24.70;99.90
29003;DHT22;16102;57.138;-2.118;2022-09-13T17:16:20;24.50;99.90
29003;DHT22;16102;57.138;-2.118;2022-09-13T17:19:03;24.40;99.90
29003;DHT22;16102;57.138;-2.118;2022-09-13T17:21:30;24.10;99.90
29003;DHT22;16102;57.138;-2.118;2022-09-13T17:24:00;23.90;99.90
29003;DHT22;16102;57.138;-2.118;2022-09-13T17:26:27;23.80;99.90
29003;DHT22;16102;57.138;-2.118;2022-09-13T17:28:54;23.80;99.90
29003;DHT22;16102;57.138;-2.118;2022-09-13T17:31:24;23.70;99.90
29003;DHT22;16102;57.138;-2.118;2022-09-13T17:33:51;23.50;99.90
29003;DHT22;16102;57.138;-2.118;2022-09-13T17:36:19;23.40;99.90
29003;DHT22;16102;57.138;-2.118;2022-09-13T17:38:46;23.30;99.90
29003;DHT22;16102;57.138;-2.118;2022-09-13T17:41:16;23.20;99.90
29003;DHT22;16102;57.138;-2.118;2022-09-13T17:43:45;23.10;99.90
29003;DHT22;16102;57.138;-2.118;2022-09-13T17:46:14;22.80;99.90
29003;DHT22;16102;57.138;-2.118;2022-09-13T17:48:42;22.70;99.90
29003;DHT22;16102;57.138;-2.118;2022-09-13T17:51:14;22.50;99.90
29003;DHT22;16102;57.138;-2.118;2022-09-13T17:53:49;22.30;99.90
29003;DHT22;16102;57.138;-2.118;2022-09-13T17:56:18;22.20;99.90
29003;DHT22;16102;57.138;-2.118;2022-09-13T17:58:46;22.20;99.90
29003;DHT22;16102;57.138;-2.118;2022-09-13T18:01:16;21.90;99.90
29003;DHT22;16102;57.138;-2.118;2022-09-13T18:03:43;21.70;99.90
29003;DHT22;16102;57.138;-2.118;2022-09-13T18:06:10;21.60;99.90
29003;DHT22;16102;57.138;-2.118;2022-09-13T18:08:38;21.40;99.90
29003;DHT22;16102;57.138;-2.118;2022-09-13T18:11:11;21.10;99.90
29003;DHT22;16102;57.138;-2.118;2022-09-13T18:13:41;21.00;99.90
29003;DHT22;16102;57.138;-2.118;2022-09-13T18:16:11;20.90;99.90
29003;DHT22;16102;57.138;-2.118;2022-09-13T18:18:45;20.80;99.90
29003;DHT22;16102;57.138;-2.118;2022-09-13T18:21:13;21.00;99.90
29003;DHT22;16102;57.138;-2.118;2022-09-13T18:23:42;20.70;99.90
29003;DHT22;16102;57.138;-2.118;2022-09-13T18:26:15;20.80;99.90
29003;DHT22;16102;57.138;-2.118;2022-09-13T18:28:42;20.70;99.90
29003;DHT22;16102;57.138;-2.118;2022-09-13T18:31:13;20.80;99.90
29003;DHT22;16102;57.138;-2.118;2022-09-13T18:33:41;20.80;99.90
29003;DHT22;16102;57.138;-2.118;2022-09-13T18:36:15;20.60;99.90
29003;DHT22;16102;57.138;-2.118;2022-09-13T18:38:44;20.30;99.90
29003;DHT22;16102;57.138;-2.118;2022-09-13T18:41:14;20.30;99.90
29003;DHT22;16102;57.138;-2.118;2022-09-13T18:43:43;19.80;99.90
29003;DHT22;16102;57.138;-2.118;2022-09-13T18:46:12;19.60;99.90
29003;DHT22;16102;57.138;-2.118;2022-09-13T18:48:45;19.40;99.90
29003;DHT22;16102;57.138;-2.118;2022-09-13T18:51:18;19.20;99.90
29003;DHT22;16102;57.138;-2.118;2022-09-13T18:53:46;19.20;99.90
29003;DHT22;16102;57.138;-2.118;2022-09-13T18:56:15;19.30;99.90
29003;DHT22;16102;57.138;-2.118;2022-09-13T18:58:43;19.30;99.90
29003;DHT22;16102;57.138;-2.118;2022-09-13T19:01:15;19.40;99.90
29003;DHT22;16102;57.138;-2.118;2022-09-13T19:03:52;19.50;99.90
29003;DHT22;16102;57.138;-2.118;2022-09-13T19:08:51;19.50;99.90
29003;DHT22;16102;57.138;-2.118;2022-09-13T19:11:20;19.30;99.90
29003;DHT22;16102;57.138;-2.118;2022-09-13T19:14:08;19.40;99.90
29003;DHT22;16102;57.138;-2.118;2022-09-13T19:16:36;19.40;99.90
29003;DHT22;16102;57.138;-2.118;2022-09-13T19:19:03;19.10;99.90
29003;DHT22;16102;57.138;-2.118;2022-09-13T19:21:31;18.90;99.90
29003;DHT22;16102;57.138;-2.118;2022-09-13T19:23:59;19.00;99.90
29003;DHT22;16102;57.138;-2.118;2022-09-13T19:26:35;19.10;99.90
29003;DHT22;16102;57.138;-2.118;2022-09-13T19:29:13;19.30;99.90
29003;DHT22;16102;57.138;-2.118;2022-09-13T19:31:43;19.40;99.90
29003;DHT22;16102;57.138;-2.118;2022-09-13T19:34:10;19.40;99.90
29003;DHT22;16102;57.138;-2.118;2022-09-13T19:36:38;19.50;99.90
29003;DHT22;16102;57.138;-2.118;2022-09-13T19:39:06;19.50;99.90
29003;DHT22;16102;57.138;-2.118;2022-09-13T19:41:33;19.00;99.90
29003;DHT22;16102;57.138;-2.118;2022-09-13T19:44:01;18.90;99.90